sensor_id;sensor_type;location;lat;lon;timestamp;temperature;humidity
52481;DHT22;38393;52.404;13.532;2023-07-02T00:02:24;17.80;99.90
52481;DHT22;38393;52.404;13.532;2023-07-02T00:04:49;17.80;99.90
52481;DHT22;38393;52.404;13.532;2023-07-02T00:07:15;17.70;99.90
52481;DHT22;38393;52.404;13.532;2023-07-02T00:09:40;17.70;99.90
52481;DHT22;38393;52.404;13.532;2023-07-02T00:12:06;17.80;99.90
52481;DHT22;38393;52.404;13.532;2023-07-02T00:14:32;17.80;99.90
52481;DHT22;38393;52.404;13.532;2023-07-02T00:16:58;17.80;99.90
52481;DHT22;38393;52.404;13.532;2023-07-02T00:19:23;17.80;99.90
52481;DHT22;38393;52.404;13.532;2023-07-02T00:21:49;17.70;99.90
52481;DHT22;38393;52.404;13.532;2023-07-02T00:24:14;17.80;99.90
52481;DHT22;38393;52.404;13.532;2023-07-02T00:26:41;17.70;99.90
52481;DHT22;38393;52.404;13.532;2023-07-02T00:29:07;17.80;99.90
52481;DHT22;38393;52.404;13.532;2023-07-02T00:31:34;17.80;99.90
52481;DHT22;38393;52.404;13.532;2023-07-02T00:34:00;17.80;99.90
52481;DHT22;38393;52.404;13.532;2023-07-02T00:36:26;17.70;99.90
52481;DHT22;38393;52.404;13.532;2023-07-02T00:38:52;17.70;99.90
52481;DHT22;38393;52.404;13.532;2023-07-02T00:41:18;17.70;99.90
52481;DHT22;38393;52.404;13.532;2023-07-02T00:43:43;17.70;99.90
52481;DHT22;38393;52.404;13.532;2023-07-02T00:46:18;17.80;99.90
52481;DHT22;38393;52.404;13.532;2023-07-02T00:48:49;17.80;99.90
52481;DHT22;38393;52.404;13.532;2023-07-02T00:51:17;17.70;99.90
52481;DHT22;38393;52.404;13.532;2023-07-02T00:53:47;17.70;99.90
52481;DHT22;38393;52.404;13.532;2023-07-02T00:56:14;17.80;99.90
52481;DHT22;38393;52.404;13.532;2023-07-02T00:58:41;17.90;99.90
52481;DHT22;38393;52.404;13.532;2023-07-02T01:01:23;17.80;99.90
52481;DHT22;38393;52.404;13.532;2023-07-02T01:03:56;17.80;99.90
52481;DHT22;38393;52.404;13.532;2023-07-02T01:06:29;17.80;99.90
52481;DHT22;38393;52.404;13.532;2023-07-02T01:08:57;17.80;99.90
52481;DHT22;38393;52.404;13.532;2023-07-02T01:11:28;17.80;99.90
52481;DHT22;38393;52.404;13.532;2023-07-02T01:14:01;17.70;99.90
52481;DHT22;38393;52.404;13.532;2023-07-02T01:16:28;17.80;99.90
52481;DHT22;38393;52.404;13.532;2023-07-02T01:18:56;17.70;99.90
52481;DHT22;38393;52.404;13.532;2023-07-02T01:21:23;17.80;99.90
52481;DHT22;38393;52.404;13.532;2023-07-02T01:23:50;17.80;99.90
52481;DHT22;38393;52.404;13.532;2023-07-02T01:26:16;17.90;99.90
52481;DHT22;38393;52.404;13.532;2023-07-02T01:28:41;17.70;99.90
52481;DHT22;38393;52.404;13.532;2023-07-02T01:31:07;17.70;99.90
52481;DHT22;38393;52.404;13.532;2023-07-02T01:33:32;17.70;99.90
52481;DHT22;38393;52.404;13.532;2023-07-02T01:35:58;17.80;99.90
52481;DHT22;38393;52.404;13.532;2023-07-02T01:38:23;17.70;99.90
52481;DHT22;38393;52.404;13.532;2023-07-02T01:40:49;17.70;99.90
52481;DHT22;38393;52.404;13.532;2023-07-02T01:43:14;17.70;99.90
52481;DHT22;38393;52.404;13.532;2023-07-02T01:45:41;17.60;99.90
52481;DHT22;38393;52.404;13.532;2023-07-02T01:48:07;17.60;99.90
52481;DHT22;38393;52.404;13.532;2023-07-02T01:50:33;17.60;99.90
52481;DHT22;38393;52.404;13.532;2023-07-02T01:52:58;17.60;99.90
52481;DHT22;38393;52.404;13.532;2023-07-02T01:55:24;17.60;99.90
52481;DHT22;38393;52.404;13.532;2023-07-02T01:57:50;17.60;99.90
52481;DHT22;38393;52.404;13.532;2023-07-02T02:00:15;17.70;99.90
52481;DHT22;38393;52.404;13.532;2023-07-02T02:02:41;17.60;99.90
52481;DHT22;38393;52.404;13.532;2023-07-02T02:05:07;17.60;99.90
52481;DHT22;38393;52.404;13.532;2023-07-02T02:07:34;17.60;99.90
52481;DHT22;38393;52.404;13.532;2023-07-02T02:10:01;17.60;99.90
52481;DHT22;38393;52.404;13.532;2023-07-02T02:12:26;17.50;99.90
52481;DHT22;38393;52.404;13.532;2023-07-02T02:14:53;17.50;99.90
52481;DHT22;38393;52.404;13.532;2023-07-02T02:17:19;17.50;99.90
52481;DHT22;38393;52.404;13.532;2023-07-02T02:19:45;17.50;99.90
52481;DHT22;38393;52.404;13.532;2023-07-02T02:22:10;17.40;99.90
52481;DHT22;38393;52.404;13.532;2023-07-02T02:24:35;17.50;99.90
52481;DHT22;38393;52.404;13.532;2023-07-02T02:27:01;17.40;99.90
52481;DHT22;38393;52.404;13.532;2023-07-02T02:29:26;17.40;99.90
52481;DHT22;38393;52.404;13.532;2023-07-02T02:31:52;17.40;99.90
52481;DHT22;38393;52.404;13.532;2023-07-02T02:34:17;17.40;99.90
52481;DHT22;38393;52.404;13.532;2023-07-02T02:36:43;17.30;99.90
52481;DHT22;38393;52.404;13.532;2023-07-02T02:39:09;17.20;99.90
52481;DHT22;38393;52.404;13.532;2023-07-02T02:41:34;17.30;99.90
52481;DHT22;38393;52.404;13.532;2023-07-02T02:43:59;17.20;99.90
52481;DHT22;38393;52.404;13.532;2023-07-02T02:46:25;17.30;99.90
52481;DHT22;38393;52.404;13.532;2023-07-02T02:48:51;17.30;99.90
52481;DHT22;38393;52.404;13.532;2023-07-02T02:51:17;17.20;99.90
52481;DHT22;38393;52.404;13.532;2023-07-02T02:53:42;17.20;99.90
52481;DHT22;38393;52.404;13.532;2023-07-02T02:56:08;17.20;99.90
52481;DHT22;38393;52.404;13.532;2023-07-02T02:58:33;17.20;99.90
52481;DHT22;38393;52.404;13.532;2023-07-02T03:00:59;17.30;99.90
52481;DHT22;38393;52.404;13.532;2023-07-02T03:03:24;17.20;99.90
52481;DHT22;38393;52.404;13.532;2023-07-02T03:05:50;17.10;99.90
52481;DHT22;38393;52.404;13.532;2023-07-02T03:08:16;17.10;99.90
52481;DHT22;38393;52.404;13.532;2023-07-02T03:10:42;17.00;99.90
52481;DHT22;38393;52.404;13.532;2023-07-02T03:13:07;17.00;99.90
52481;DHT22;38393;52.404;13.532;2023-07-02T03:15:33;17.00;99.90
52481;DHT22;38393;52.404;13.532;2023-07-02T03:17:58;17.00;99.90
52481;DHT22;38393;52.404;13.532;2023-07-02T03:20:24;17.10;99.90
52481;DHT22;38393;52.404;13.532;2023-07-02T03:22:49;17.00;99.90
52481;DHT22;38393;52.404;13.532;2023-07-02T03:25:15;17.00;99.90
52481;DHT22;38393;52.404;13.532;2023-07-02T03:27:41;17.00;99.90
52481;DHT22;38393;52.404;13.532;2023-07-02T03:30:07;17.00;99.90
52481;DHT22;38393;52.404;13.532;2023-07-02T03:32:33;17.00;99.90
52481;DHT22;38393;52.404;13.532;2023-07-02T03:34:58;17.00;99.90
52481;DHT22;38393;52.404;13.532;2023-07-02T03:37:24;17.00;99.90
52481;DHT22;38393;52.404;13.532;2023-07-02T03:39:49;17.00;99.90
52481;DHT22;38393;52.404;13.532;2023-07-02T03:42:16;17.00;99.90
52481;DHT22;38393;52.404;13.532;2023-07-02T03:44:41;17.10;99.90
52481;DHT22;38393;52.404;13.532;2023-07-02T03:47:07;16.90;99.90
52481;DHT22;38393;52.404;13.532;2023-07-02T03:49:33;17.00;99.90
52481;DHT22;38393;52.404;13.532;2023-07-02T03:51:59;17.10;99.90
52481;DHT22;38393;52.404;13.532;2023-07-02T03:54:24;17.00;99.90
52481;DHT22;38393;52.404;13.532;2023-07-02T03:56:50;17.00;99.90
52481;DHT22;38393;52.404;13.532;2023-07-02T03:59:15;17.00;99.90
52481;DHT22;38393;52.404;13.532;2023-07-02T04:01:41;17.00;99.90
52481;DHT22;38393;52.404;13.532;2023-07-02T04:04:06;17.00;99.90
52481;DHT22;38393;52.404;13.532;2023-07-02T04:06:32;17.00;99.90
52481;DHT22;38393;52.404;13.532;2023-07-02T04:08:59;17.00;99.90
52481;DHT22;38393;52.404;13.532;2023-07-02T04:11:24;17.20;99.90
52481;DHT22;38393;52.404;13.532;2023-07-02T04:13:50;17.10;99.90
52481;DHT22;38393;52.404;13.532;2023-07-02T04:16:15;17.10;99.90
52481;DHT22;38393;52.404;13.532;2023-07-02T04:18:41;17.10;99.90
52481;DHT22;38393;52.404;13.532;2023-07-02T04:21:06;17.10;99.90
52481;DHT22;38393;52.404;13.532;2023-07-02T04:23:32;17.00;99.90
52481;DHT22;38393;52.404;13.532;2023-07-02T04:25:57;17.10;99.90
52481;DHT22;38393;52.404;13.532;2023-07-02T04:28:23;17.10;99.90
52481;DHT22;38393;52.404;13.532;2023-07-02T04:30:48;17.20;99.90
52481;DHT22;38393;52.404;13.532;2023-07-02T04:33:15;17.20;99.90
52481;DHT22;38393;52.404;13.532;2023-07-02T04:35:41;17.20;99.90
52481;DHT22;38393;52.404;13.532;2023-07-02T04:38:07;17.20;99.90
52481;DHT22;38393;52.404;13.532;2023-07-02T04:40:33;17.30;99.90
52481;DHT22;38393;52.404;13.532;2023-07-02T04:42:58;17.30;99.90
52481;DHT22;38393;52.404;13.532;2023-07-02T04:45:27;17.20;99.90
52481;DHT22;38393;52.404;13.532;2023-07-02T04:47:57;17.20;99.90
52481;DHT22;38393;52.404;13.532;2023-07-02T04:50:23;17.30;99.90
52481;DHT22;38393;52.404;13.532;2023-07-02T04:52:48;17.20;99.90
52481;DHT22;38393;52.404;13.532;2023-07-02T04:55:14;17.30;99.90
52481;DHT22;38393;52.404;13.532;2023-07-02T04:57:39;17.30;99.90
52481;DHT22;38393;52.404;13.532;2023-07-02T05:00:05;17.50;99.90
52481;DHT22;38393;52.404;13.532;2023-07-02T05:02:34;17.60;99.90
52481;DHT22;38393;52.404;13.532;2023-07-02T05:04:59;17.60;99.90
52481;DHT22;38393;52.404;13.532;2023-07-02T05:07:24;17.70;99.90
52481;DHT22;38393;52.404;13.532;2023-07-02T05:09:50;17.60;99.90
52481;DHT22;38393;52.404;13.532;2023-07-02T05:12:17;17.60;99.90
52481;DHT22;38393;52.404;13.532;2023-07-02T05:14:43;17.60;99.90
52481;DHT22;38393;52.404;13.532;2023-07-02T05:17:08;17.60;99.90
52481;DHT22;38393;52.404;13.532;2023-07-02T05:19:34;17.50;99.90
52481;DHT22;38393;52.404;13.532;2023-07-02T05:21:59;17.90;99.90
52481;DHT22;38393;52.404;13.532;2023-07-02T05:24:25;17.80;99.90
52481;DHT22;38393;52.404;13.532;2023-07-02T05:26:50;17.80;99.90
52481;DHT22;38393;52.404;13.532;2023-07-02T05:29:16;18.20;99.90
52481;DHT22;38393;52.404;13.532;2023-07-02T05:31:42;18.20;99.90
52481;DHT22;38393;52.404;13.532;2023-07-02T05:34:07;18.20;99.90
52481;DHT22;38393;52.404;13.532;2023-07-02T05:36:33;18.20;99.90
52481;DHT22;38393;52.404;13.532;2023-07-02T05:39:00;18.40;99.90
52481;DHT22;38393;52.404;13.532;2023-07-02T05:41:25;18.20;99.90
52481;DHT22;38393;52.404;13.532;2023-07-02T05:43:59;18.30;99.90
52481;DHT22;38393;52.404;13.532;2023-07-02T05:46:24;18.40;99.90
52481;DHT22;38393;52.404;13.532;2023-07-02T05:48:50;18.40;99.90
52481;DHT22;38393;52.404;13.532;2023-07-02T05:51:25;18.20;99.90
52481;DHT22;38393;52.404;13.532;2023-07-02T05:53:51;18.40;99.90
52481;DHT22;38393;52.404;13.532;2023-07-02T05:56:17;18.70;99.90
52481;DHT22;38393;52.404;13.532;2023-07-02T05:58:43;18.80;99.90
52481;DHT22;38393;52.404;13.532;2023-07-02T06:01:08;18.90;98.20
52481;DHT22;38393;52.404;13.532;2023-07-02T06:03:33;18.50;99.70
52481;DHT22;38393;52.404;13.532;2023-07-02T06:05:59;18.50;99.90
52481;DHT22;38393;52.404;13.532;2023-07-02T06:08:25;18.40;99.90
52481;DHT22;38393;52.404;13.532;2023-07-02T06:10:50;18.50;99.90
52481;DHT22;38393;52.404;13.532;2023-07-02T06:13:16;18.40;99.40
52481;DHT22;38393;52.404;13.532;2023-07-02T06:15:42;18.30;99.90
52481;DHT22;38393;52.404;13.532;2023-07-02T06:18:07;18.20;99.90
52481;DHT22;38393;52.404;13.532;2023-07-02T06:20:33;18.60;99.00
52481;DHT22;38393;52.404;13.532;2023-07-02T06:22:58;18.90;97.90
52481;DHT22;38393;52.404;13.532;2023-07-02T06:25:24;18.90;96.70
52481;DHT22;38393;52.404;13.532;2023-07-02T06:27:50;19.30;97.20
52481;DHT22;38393;52.404;13.532;2023-07-02T06:30:15;19.70;95.40
52481;DHT22;38393;52.404;13.532;2023-07-02T06:32:41;20.00;94.20
52481;DHT22;38393;52.404;13.532;2023-07-02T06:35:06;20.10;92.30
52481;DHT22;38393;52.404;13.532;2023-07-02T06:37:32;19.80;92.10
52481;DHT22;38393;52.404;13.532;2023-07-02T06:39:58;19.30;91.70
52481;DHT22;38393;52.404;13.532;2023-07-02T06:42:24;19.20;93.80
52481;DHT22;38393;52.404;13.532;2023-07-02T06:44:50;19.20;93.50
52481;DHT22;38393;52.404;13.532;2023-07-02T06:47:15;19.20;93.60
52481;DHT22;38393;52.404;13.532;2023-07-02T06:49:41;19.10;94.00
52481;DHT22;38393;52.404;13.532;2023-07-02T06:52:06;18.90;92.70
52481;DHT22;38393;52.404;13.532;2023-07-02T06:54:32;19.10;92.60
52481;DHT22;38393;52.404;13.532;2023-07-02T06:56:57;19.40;91.10
52481;DHT22;38393;52.404;13.532;2023-07-02T06:59:23;19.70;90.80
52481;DHT22;38393;52.404;13.532;2023-07-02T07:01:49;20.00;90.70
52481;DHT22;38393;52.404;13.532;2023-07-02T07:04:15;20.10;87.90
52481;DHT22;38393;52.404;13.532;2023-07-02T07:06:41;19.90;88.40
52481;DHT22;38393;52.404;13.532;2023-07-02T07:09:06;20.00;88.60
52481;DHT22;38393;52.404;13.532;2023-07-02T07:11:32;20.30;85.70
52481;DHT22;38393;52.404;13.532;2023-07-02T07:13:57;20.00;85.70
52481;DHT22;38393;52.404;13.532;2023-07-02T07:16:23;20.20;87.60
52481;DHT22;38393;52.404;13.532;2023-07-02T07:18:48;20.10;86.40
52481;DHT22;38393;52.404;13.532;2023-07-02T07:21:14;19.90;84.30
52481;DHT22;38393;52.404;13.532;2023-07-02T07:23:40;19.90;86.60
52481;DHT22;38393;52.404;13.532;2023-07-02T07:26:06;19.50;87.50
52481;DHT22;38393;52.404;13.532;2023-07-02T07:28:31;19.50;87.30
52481;DHT22;38393;52.404;13.532;2023-07-02T07:30:57;19.40;86.10
52481;DHT22;38393;52.404;13.532;2023-07-02T07:33:22;19.30;86.40
52481;DHT22;38393;52.404;13.532;2023-07-02T07:35:48;19.30;87.30
52481;DHT22;38393;52.404;13.532;2023-07-02T07:38:14;19.70;89.20
52481;DHT22;38393;52.404;13.532;2023-07-02T07:40:43;20.10;82.80
52481;DHT22;38393;52.404;13.532;2023-07-02T07:43:08;20.00;81.30
52481;DHT22;38393;52.404;13.532;2023-07-02T07:45:34;19.80;81.70
52481;DHT22;38393;52.404;13.532;2023-07-02T07:48:00;20.40;84.00
52481;DHT22;38393;52.404;13.532;2023-07-02T07:50:25;20.30;82.10
52481;DHT22;38393;52.404;13.532;2023-07-02T07:52:51;20.50;79.40
52481;DHT22;38393;52.404;13.532;2023-07-02T07:55:17;20.20;82.00
52481;DHT22;38393;52.404;13.532;2023-07-02T07:57:42;20.10;83.10
52481;DHT22;38393;52.404;13.532;2023-07-02T08:00:08;19.60;83.50
52481;DHT22;38393;52.404;13.532;2023-07-02T08:02:37;19.50;83.90
52481;DHT22;38393;52.404;13.532;2023-07-02T08:05:03;19.60;85.70
52481;DHT22;38393;52.404;13.532;2023-07-02T08:07:30;19.40;83.80
52481;DHT22;38393;52.404;13.532;2023-07-02T08:09:55;19.60;85.20
52481;DHT22;38393;52.404;13.532;2023-07-02T08:12:21;19.40;83.60
52481;DHT22;38393;52.404;13.532;2023-07-02T08:14:46;19.40;83.80
52481;DHT22;38393;52.404;13.532;2023-07-02T08:17:12;19.50;86.20
52481;DHT22;38393;52.404;13.532;2023-07-02T08:19:38;19.30;85.30
52481;DHT22;38393;52.404;13.532;2023-07-02T08:22:03;19.10;85.00
52481;DHT22;38393;52.404;13.532;2023-07-02T08:24:29;19.10;86.10
52481;DHT22;38393;52.404;13.532;2023-07-02T08:26:56;18.90;87.80
52481;DHT22;38393;52.404;13.532;2023-07-02T08:29:21;18.80;88.40
52481;DHT22;38393;52.404;13.532;2023-07-02T08:31:47;18.80;89.60
52481;DHT22;38393;52.404;13.532;2023-07-02T08:34:12;18.90;89.20
52481;DHT22;38393;52.404;13.532;2023-07-02T08:36:38;18.80;89.10
52481;DHT22;38393;52.404;13.532;2023-07-02T08:39:03;18.80;90.00
52481;DHT22;38393;52.404;13.532;2023-07-02T08:41:30;18.80;89.80
52481;DHT22;38393;52.404;13.532;2023-07-02T08:43:56;18.90;89.60
52481;DHT22;38393;52.404;13.532;2023-07-02T08:46:23;18.60;88.20
52481;DHT22;38393;52.404;13.532;2023-07-02T08:48:49;18.50;88.10
52481;DHT22;38393;52.404;13.532;2023-07-02T08:51:15;18.50;90.20
52481;DHT22;38393;52.404;13.532;2023-07-02T08:53:40;18.40;89.90
52481;DHT22;38393;52.404;13.532;2023-07-02T08:56:06;18.30;90.00
52481;DHT22;38393;52.404;13.532;2023-07-02T08:58:31;18.20;91.90
52481;DHT22;38393;52.404;13.532;2023-07-02T09:01:10;18.00;91.00
52481;DHT22;38393;52.404;13.532;2023-07-02T09:03:36;18.00;90.90
52481;DHT22;38393;52.404;13.532;2023-07-02T09:06:03;17.80;90.00
52481;DHT22;38393;52.404;13.532;2023-07-02T09:08:29;18.00;90.20
52481;DHT22;38393;52.404;13.532;2023-07-02T09:11:14;18.00;88.10
52481;DHT22;38393;52.404;13.532;2023-07-02T09:16:30;18.10;89.70
52481;DHT22;38393;52.404;13.532;2023-07-02T09:19:05;18.20;89.80
52481;DHT22;38393;52.404;13.532;2023-07-02T09:21:48;18.10;87.70
52481;DHT22;38393;52.404;13.532;2023-07-02T09:24:23;18.20;87.80
52481;DHT22;38393;52.404;13.532;2023-07-02T09:26:54;18.40;90.00
52481;DHT22;38393;52.404;13.532;2023-07-02T09:29:27;18.40;88.60
52481;DHT22;38393;52.404;13.532;2023-07-02T09:32:04;18.50;90.10
52481;DHT22;38393;52.404;13.532;2023-07-02T09:34:30;18.50;88.40
52481;DHT22;38393;52.404;13.532;2023-07-02T09:36:57;18.50;90.10
52481;DHT22;38393;52.404;13.532;2023-07-02T09:39:33;18.60;89.40
52481;DHT22;38393;52.404;13.532;2023-07-02T09:42:00;18.60;88.40
52481;DHT22;38393;52.404;13.532;2023-07-02T09:44:30;18.60;89.20
52481;DHT22;38393;52.404;13.532;2023-07-02T09:49:34;18.90;88.80
52481;DHT22;38393;52.404;13.532;2023-07-02T09:52:07;19.00;88.60
52481;DHT22;38393;52.404;13.532;2023-07-02T09:54:33;18.90;85.20
52481;DHT22;38393;52.404;13.532;2023-07-02T09:56:59;19.00;87.10
52481;DHT22;38393;52.404;13.532;2023-07-02T09:59:25;19.30;87.10
52481;DHT22;38393;52.404;13.532;2023-07-02T10:01:51;19.30;87.10
52481;DHT22;38393;52.404;13.532;2023-07-02T10:04:18;19.60;84.10
52481;DHT22;38393;52.404;13.532;2023-07-02T10:06:49;19.40;85.30
52481;DHT22;38393;52.404;13.532;2023-07-02T10:09:16;19.40;83.30
52481;DHT22;38393;52.404;13.532;2023-07-02T10:11:42;19.60;83.20
52481;DHT22;38393;52.404;13.532;2023-07-02T10:14:08;19.70;83.20
52481;DHT22;38393;52.404;13.532;2023-07-02T10:16:34;19.60;80.50
52481;DHT22;38393;52.404;13.532;2023-07-02T10:19:12;19.80;81.40
52481;DHT22;38393;52.404;13.532;2023-07-02T10:21:38;19.60;80.10
52481;DHT22;38393;52.404;13.532;2023-07-02T10:24:14;20.10;81.10
52481;DHT22;38393;52.404;13.532;2023-07-02T10:26:53;20.00;75.70
52481;DHT22;38393;52.404;13.532;2023-07-02T10:29:19;20.10;78.90
52481;DHT22;38393;52.404;13.532;2023-07-02T10:31:50;20.30;74.70
52481;DHT22;38393;52.404;13.532;2023-07-02T10:34:16;20.30;76.50
52481;DHT22;38393;52.404;13.532;2023-07-02T10:36:41;21.00;77.20
52481;DHT22;38393;52.404;13.532;2023-07-02T10:39:07;21.00;74.10
52481;DHT22;38393;52.404;13.532;2023-07-02T10:41:34;21.30;75.10
52481;DHT22;38393;52.404;13.532;2023-07-02T10:44:09;20.90;74.30
52481;DHT22;38393;52.404;13.532;2023-07-02T10:46:42;21.30;74.50
52481;DHT22;38393;52.404;13.532;2023-07-02T10:49:08;21.20;75.50
52481;DHT22;38393;52.404;13.532;2023-07-02T10:51:34;20.40;74.30
52481;DHT22;38393;52.404;13.532;2023-07-02T10:54:01;20.50;76.90
52481;DHT22;38393;52.404;13.532;2023-07-02T10:56:28;20.70;78.70
52481;DHT22;38393;52.404;13.532;2023-07-02T10:58:54;21.10;75.70
52481;DHT22;38393;52.404;13.532;2023-07-02T11:01:27;21.50;74.20
52481;DHT22;38393;52.404;13.532;2023-07-02T11:04:00;21.60;71.90
52481;DHT22;38393;52.404;13.532;2023-07-02T11:06:30;21.30;71.30
52481;DHT22;38393;52.404;13.532;2023-07-02T11:08:56;21.50;72.90
52481;DHT22;38393;52.404;13.532;2023-07-02T11:11:23;21.50;72.00
52481;DHT22;38393;52.404;13.532;2023-07-02T11:13:49;21.40;70.40
52481;DHT22;38393;52.404;13.532;2023-07-02T11:16:26;21.20;71.70
52481;DHT22;38393;52.404;13.532;2023-07-02T11:19:09;21.10;70.70
52481;DHT22;38393;52.404;13.532;2023-07-02T11:21:35;20.80;73.90
52481;DHT22;38393;52.404;13.532;2023-07-02T11:24:02;20.60;74.30
52481;DHT22;38393;52.404;13.532;2023-07-02T11:26:38;20.50;73.80
52481;DHT22;38393;52.404;13.532;2023-07-02T11:29:03;21.10;64.70
52481;DHT22;38393;52.404;13.532;2023-07-02T11:31:33;21.30;65.60
52481;DHT22;38393;52.404;13.532;2023-07-02T11:33:58;21.50;59.70
52481;DHT22;38393;52.404;13.532;2023-07-02T11:36:24;21.70;58.60
52481;DHT22;38393;52.404;13.532;2023-07-02T11:38:50;21.50;56.20
52481;DHT22;38393;52.404;13.532;2023-07-02T11:41:17;21.90;57.90
52481;DHT22;38393;52.404;13.532;2023-07-02T11:43:43;21.40;57.20
52481;DHT22;38393;52.404;13.532;2023-07-02T11:46:08;21.40;58.80
52481;DHT22;38393;52.404;13.532;2023-07-02T11:48:34;21.40;56.20
52481;DHT22;38393;52.404;13.532;2023-07-02T11:50:59;21.40;55.70
52481;DHT22;38393;52.404;13.532;2023-07-02T11:53:25;21.70;55.70
52481;DHT22;38393;52.404;13.532;2023-07-02T11:55:50;21.90;55.40
52481;DHT22;38393;52.404;13.532;2023-07-02T11:58:16;22.00;56.00
52481;DHT22;38393;52.404;13.532;2023-07-02T12:00:41;22.20;52.90
52481;DHT22;38393;52.404;13.532;2023-07-02T12:03:07;22.00;52.10
52481;DHT22;38393;52.404;13.532;2023-07-02T12:05:32;22.20;53.30
52481;DHT22;38393;52.404;13.532;2023-07-02T12:07:58;22.20;52.10
52481;DHT22;38393;52.404;13.532;2023-07-02T12:10:23;22.10;52.90
52481;DHT22;38393;52.404;13.532;2023-07-02T12:12:49;21.90;53.40
52481;DHT22;38393;52.404;13.532;2023-07-02T12:15:14;22.20;53.50
52481;DHT22;38393;52.404;13.532;2023-07-02T12:17:40;22.60;54.80
52481;DHT22;38393;52.404;13.532;2023-07-02T12:20:05;22.40;52.30
52481;DHT22;38393;52.404;13.532;2023-07-02T12:22:31;22.00;54.40
52481;DHT22;38393;52.404;13.532;2023-07-02T12:24:56;22.00;53.70
52481;DHT22;38393;52.404;13.532;2023-07-02T12:27:22;22.40;54.10
52481;DHT22;38393;52.404;13.532;2023-07-02T12:29:48;23.00;53.80
52481;DHT22;38393;52.404;13.532;2023-07-02T12:32:14;22.70;52.50
52481;DHT22;38393;52.404;13.532;2023-07-02T12:34:40;22.50;53.00
52481;DHT22;38393;52.404;13.532;2023-07-02T12:37:05;22.50;53.50
52481;DHT22;38393;52.404;13.532;2023-07-02T12:39:31;22.30;53.40
52481;DHT22;38393;52.404;13.532;2023-07-02T12:41:56;22.30;54.10
52481;DHT22;38393;52.404;13.532;2023-07-02T12:44:22;22.20;54.40
52481;DHT22;38393;52.404;13.532;2023-07-02T12:46:47;22.20;52.80
52481;DHT22;38393;52.404;13.532;2023-07-02T12:49:12;22.40;51.80
52481;DHT22;38393;52.404;13.532;2023-07-02T12:51:38;22.30;51.60
52481;DHT22;38393;52.404;13.532;2023-07-02T12:54:04;22.20;51.70
52481;DHT22;38393;52.404;13.532;2023-07-02T12:56:29;22.50;53.20
52481;DHT22;38393;52.404;13.532;2023-07-02T12:58:55;23.00;52.40
52481;DHT22;38393;52.404;13.532;2023-07-02T13:01:20;22.70;51.10
52481;DHT22;38393;52.404;13.532;2023-07-02T13:03:46;22.60;50.70
52481;DHT22;38393;52.404;13.532;2023-07-02T13:06:15;22.00;52.80
52481;DHT22;38393;52.404;13.532;2023-07-02T13:08:41;22.10;53.00
52481;DHT22;38393;52.404;13.532;2023-07-02T13:11:07;22.30;51.10
52481;DHT22;38393;52.404;13.532;2023-07-02T13:13:33;22.20;50.00
52481;DHT22;38393;52.404;13.532;2023-07-02T13:16:01;22.50;48.50
52481;DHT22;38393;52.404;13.532;2023-07-02T13:18:26;22.30;48.80
52481;DHT22;38393;52.404;13.532;2023-07-02T13:20:52;21.90;49.80
52481;DHT22;38393;52.404;13.532;2023-07-02T13:23:17;21.70;49.70
52481;DHT22;38393;52.404;13.532;2023-07-02T13:25:43;22.10;50.20
52481;DHT22;38393;52.404;13.532;2023-07-02T13:28:08;22.40;50.10
52481;DHT22;38393;52.404;13.532;2023-07-02T13:30:34;22.90;49.30
52481;DHT22;38393;52.404;13.532;2023-07-02T13:32:59;22.80;47.70
52481;DHT22;38393;52.404;13.532;2023-07-02T13:35:24;22.70;46.80
52481;DHT22;38393;52.404;13.532;2023-07-02T13:37:50;22.60;46.30
52481;DHT22;38393;52.404;13.532;2023-07-02T13:40:15;22.50;45.20
52481;DHT22;38393;52.404;13.532;2023-07-02T13:42:42;22.70;46.50
52481;DHT22;38393;52.404;13.532;2023-07-02T13:48:03;22.50;46.60
52481;DHT22;38393;52.404;13.532;2023-07-02T13:50:30;22.60;46.80
52481;DHT22;38393;52.404;13.532;2023-07-02T13:52:56;22.70;47.30
52481;DHT22;38393;52.404;13.532;2023-07-02T13:55:21;22.80;46.40
52481;DHT22;38393;52.404;13.532;2023-07-02T13:57:53;22.70;44.10
52481;DHT22;38393;52.404;13.532;2023-07-02T14:00:19;22.20;44.70
52481;DHT22;38393;52.404;13.532;2023-07-02T14:02:44;21.70;45.70
52481;DHT22;38393;52.404;13.532;2023-07-02T14:05:10;21.90;46.10
52481;DHT22;38393;52.404;13.532;2023-07-02T14:07:35;21.60;47.60
52481;DHT22;38393;52.404;13.532;2023-07-02T14:10:01;21.80;49.50
52481;DHT22;38393;52.404;13.532;2023-07-02T14:12:26;22.30;48.50
52481;DHT22;38393;52.404;13.532;2023-07-02T14:14:52;22.30;45.40
52481;DHT22;38393;52.404;13.532;2023-07-02T14:17:18;22.40;46.20
52481;DHT22;38393;52.404;13.532;2023-07-02T14:19:44;22.30;45.60
52481;DHT22;38393;52.404;13.532;2023-07-02T14:22:09;22.50;45.70
52481;DHT22;38393;52.404;13.532;2023-07-02T14:24:35;22.70;45.80
52481;DHT22;38393;52.404;13.532;2023-07-02T14:27:00;22.70;45.20
52481;DHT22;38393;52.404;13.532;2023-07-02T14:29:26;22.30;45.10
52481;DHT22;38393;52.404;13.532;2023-07-02T14:31:51;22.50;45.30
52481;DHT22;38393;52.404;13.532;2023-07-02T14:34:17;22.50;46.70
52481;DHT22;38393;52.404;13.532;2023-07-02T14:36:42;22.50;45.30
52481;DHT22;38393;52.404;13.532;2023-07-02T14:39:08;22.50;44.90
52481;DHT22;38393;52.404;13.532;2023-07-02T14:41:33;22.60;44.60
52481;DHT22;38393;52.404;13.532;2023-07-02T14:44:02;22.70;45.70
52481;DHT22;38393;52.404;13.532;2023-07-02T14:46:27;22.80;44.10
52481;DHT22;38393;52.404;13.532;2023-07-02T14:48:53;22.40;47.10
52481;DHT22;38393;52.404;13.532;2023-07-02T14:51:18;22.70;43.90
52481;DHT22;38393;52.404;13.532;2023-07-02T14:53:44;22.70;43.60
52481;DHT22;38393;52.404;13.532;2023-07-02T14:56:09;22.60;41.30
52481;DHT22;38393;52.404;13.532;2023-07-02T14:58:35;22.40;42.30
52481;DHT22;38393;52.404;13.532;2023-07-02T15:01:00;22.20;43.00
52481;DHT22;38393;52.404;13.532;2023-07-02T15:03:27;22.70;44.10
52481;DHT22;38393;52.404;13.532;2023-07-02T15:05:53;22.50;42.90
52481;DHT22;38393;52.404;13.532;2023-07-02T15:08:20;22.60;42.00
52481;DHT22;38393;52.404;13.532;2023-07-02T15:10:48;22.80;43.90
52481;DHT22;38393;52.404;13.532;2023-07-02T15:13:14;22.90;42.00
52481;DHT22;38393;52.404;13.532;2023-07-02T15:15:41;22.80;42.40
52481;DHT22;38393;52.404;13.532;2023-07-02T15:18:07;22.70;41.80
52481;DHT22;38393;52.404;13.532;2023-07-02T15:20:34;22.80;42.30